Aeroporto :
LOGIN :

Iscrizione | Disclaimer

   EN    FR    IT 

 










Sommario :    VFR   VFR Marginale   IFR   IFR Intensivo   IFR Molto Intensivo
Visibilità : 
Base nubi : 
>= 8 km
>= 3000ft
5 / 8 km
1000 / 3000 ft
1500m / 5 km
500 / 1000 ft
800 / 1500m
200 / 500 ft
< 800m
< 200 ft
Simboli :   Temporali  Nebbia  Neve Forte  Precipitazioni Forti  Vento > 20 kt
SIGMETs :   Varie  Temporali  Ghiacco  Turbolenza  Onda orograficha  Ceneri Vulcaniche






- Altitudine del aeroporto : 183 ft
- Codice IATA : HAJ


EDDV - Hanover/Langenhagen Int.

ULTIMO METAR :
  • 201320Z 05003KT 9999 -RA FEW006 BKN020 13/12 Q1010 TEMPO BKN006

METARs OBSOLETI :
  • 201250Z 05003KT 9999 -RA FEW008 BKN022 13/12 Q1010 TEMPO BKN007
  • 201220Z 05003KT 030V090 9999 -RA FEW007 BKN024 13/12 Q1010 TEMPO BKN007
  • 201150Z 09004KT 9999 SCT007 BKN026 13/12 Q1010 TEMPO BKN007
  • 201120Z 08003KT 9999 SCT007 BKN027 14/12 Q1010 TEMPO BKN007
  • 201050Z 11003KT 080V150 9999 -RA SCT008 OVC032 13/12 Q1010 TEMPO BKN008

TAF TAF EDDV
Valido dal 20 a 12 ore il 21 a 12 ore UTC


201100Z 2012/2112 VRB02KT 9999 BKN045
BECMG 2012/2015 06005KT
TEMPO 2012/2015 BKN008
PROB30
TEMPO 2015/2022 3500 RA BKN004
BECMG 2022/2024 4000 -RA BKN004
TEMPO 2100/2106 1000 RADZ
PROB40
TEMPO 2102/2106 0400 FG BKN001
BECMG 2106/2109 15006KT
BECMG 2109/2112 9999 SCT006 BKN012



MetMap, La meteo Aeronautica in un colpo d'occhio ! - Copyright ORBIFLY Dicembre 2007 - Disclaimer

ORBIFLY MET'MAP TEAM :

Programmazione e sviluppo : Alexandra Zaïnal
Concezione e sviluppo : Baudouin d'Aumeries
Co-Programmazione e sviluppo : Marc-Olivier Méhu
Supporto tecnico e logistico : Manuel Goepfert
Aiuto per la traduzione : Arnaldo La Scala

Contatto : metmap@orbifly.com




FONTI E CREDITI :

   NOAA